createdAt,value
2018-02-13T00:00:41.864Z,17.36
2018-02-13T00:01:41.862Z,17.35
2018-02-13T00:02:41.871Z,17.36
2018-02-13T00:03:41.873Z,17.34
2018-02-13T00:04:41.907Z,17.31
2018-02-13T00:05:41.865Z,17.34
2018-02-13T00:06:41.858Z,17.34
2018-02-13T00:07:41.920Z,17.36
2018-02-13T00:08:41.907Z,17.34
2018-02-13T00:09:41.878Z,17.34
2018-02-13T00:10:42.639Z,17.3
2018-02-13T00:11:41.852Z,17.3
2018-02-13T00:12:41.906Z,17.32
2018-02-13T00:13:41.855Z,17.3
2018-02-13T00:14:41.843Z,17.3
2018-02-13T00:15:41.899Z,17.3
2018-02-13T00:16:41.863Z,17.31
2018-02-13T00:17:41.858Z,17.29
2018-02-13T00:18:41.718Z,17.28
2018-02-13T00:19:41.990Z,17.28
2018-02-13T00:20:41.998Z,17.25
2018-02-13T00:21:41.852Z,17.23
2018-02-13T00:22:41.916Z,17.24
2018-02-13T00:23:41.859Z,17.24
2018-02-13T00:24:41.866Z,17.22
2018-02-13T00:25:41.875Z,17.21
2018-02-13T00:26:41.883Z,17.22
2018-02-13T00:27:41.854Z,17.23
2018-02-13T00:28:41.851Z,17.2
2018-02-13T00:29:41.979Z,17.23
2018-02-13T00:30:41.853Z,17.22
2018-02-13T00:31:41.846Z,17.2
2018-02-13T00:32:41.853Z,17.19
2018-02-13T00:33:41.909Z,17.17
2018-02-13T00:34:41.900Z,17.19
2018-02-13T00:35:41.869Z,17.2
2018-02-13T00:36:41.842Z,17.21
2018-02-13T00:37:41.845Z,17.17
2018-02-13T00:38:41.904Z,17.17
2018-02-13T00:39:41.872Z,17.17
2018-02-13T00:40:41.858Z,17.15
2018-02-13T00:41:41.845Z,17.16
2018-02-13T00:42:41.892Z,17.15
2018-02-13T00:43:41.871Z,17.18
2018-02-13T00:44:42.158Z,17.16
2018-02-13T00:45:41.873Z,17.17
2018-02-13T00:46:41.916Z,17.15
2018-02-13T00:47:41.839Z,17.17
2018-02-13T00:48:41.895Z,17.16
2018-02-13T00:49:41.963Z,17.15
2018-02-13T00:50:41.917Z,17.13
2018-02-13T00:51:41.892Z,17.16
2018-02-13T00:52:41.912Z,17.13
2018-02-13T00:53:41.900Z,17.13
2018-02-13T00:54:41.910Z,17.11
2018-02-13T00:55:41.883Z,17.09
2018-02-13T00:56:41.858Z,17.14
2018-02-13T00:57:41.822Z,17.13
2018-02-13T00:58:41.892Z,17.1
2018-02-13T00:59:41.916Z,17.09
2018-02-13T01:00:41.919Z,17.11
2018-02-13T01:01:41.941Z,17.1
2018-02-13T01:02:41.910Z,17.1
2018-02-13T01:03:41.913Z,17.11
2018-02-13T01:04:41.959Z,17.09
2018-02-13T01:05:41.948Z,17.1
2018-02-13T01:06:41.905Z,17.08
2018-02-13T01:07:41.888Z,17.1
2018-02-13T01:08:41.895Z,17.08
2018-02-13T01:09:41.878Z,17.06
2018-02-13T01:10:41.864Z,17.06
2018-02-13T01:11:43.423Z,17.06
2018-02-13T01:12:41.837Z,17.04
2018-02-13T01:13:41.864Z,17.07
2018-02-13T01:14:41.860Z,17.06
2018-02-13T01:15:41.903Z,17.04
2018-02-13T01:16:41.854Z,17.06
2018-02-13T01:17:41.848Z,17.06
2018-02-13T01:18:41.843Z,17.05
2018-02-13T01:19:41.865Z,17.05
2018-02-13T01:20:41.835Z,17.03
2018-02-13T01:21:41.880Z,17.05
2018-02-13T01:22:41.843Z,17.03
2018-02-13T01:23:41.904Z,17.01
2018-02-13T01:24:41.879Z,17.03
2018-02-13T01:25:41.825Z,17.02
2018-02-13T01:26:41.833Z,16.99
2018-02-13T01:27:41.818Z,17.01
2018-02-13T01:28:41.861Z,17.01
2018-02-13T01:29:41.826Z,16.99
2018-02-13T01:30:41.833Z,16.99
2018-02-13T01:31:41.862Z,16.98
2018-02-13T01:32:41.822Z,16.99
2018-02-13T01:33:41.882Z,16.96
2018-02-13T01:34:41.890Z,16.98
2018-02-13T01:35:41.887Z,16.95
2018-02-13T01:36:41.918Z,16.95
2018-02-13T01:37:41.928Z,16.96
2018-02-13T01:38:41.913Z,16.95
2018-02-13T01:40:44.824Z,16.98
2018-02-13T01:41:41.864Z,16.95
2018-02-13T01:42:41.944Z,16.96
2018-02-13T01:43:41.932Z,16.94
2018-02-13T01:44:42.010Z,16.93
2018-02-13T01:45:41.886Z,16.92
2018-02-13T01:46:41.891Z,16.96
2018-02-13T01:47:41.920Z,16.9
2018-02-13T01:48:41.895Z,16.92
2018-02-13T01:49:41.990Z,16.91
2018-02-13T01:50:41.862Z,16.92
2018-02-13T01:51:41.840Z,16.88
2018-02-13T01:52:41.862Z,16.88
2018-02-13T01:53:41.872Z,16.87
2018-02-13T01:54:41.936Z,16.88
2018-02-13T01:55:41.894Z,16.91
2018-02-13T01:56:41.879Z,16.89
2018-02-13T01:57:41.844Z,16.87
2018-02-13T01:58:41.885Z,16.9
2018-02-13T02:03:35.978Z,16.85
2018-02-13T02:04:35.539Z,16.85
2018-02-13T02:05:35.541Z,16.85
2018-02-13T02:06:35.511Z,16.87
2018-02-13T02:07:35.520Z,16.87
2018-02-13T02:08:35.492Z,16.84
2018-02-13T02:09:35.512Z,16.85
2018-02-13T02:10:35.525Z,16.82
2018-02-13T02:11:35.543Z,16.82
2018-02-13T02:12:35.510Z,16.8
2018-02-13T02:13:35.505Z,16.81
2018-02-13T02:14:35.488Z,16.81
2018-02-13T02:15:35.516Z,16.81
2018-02-13T02:16:35.494Z,16.8
2018-02-13T02:17:35.507Z,16.78
2018-02-13T02:18:35.518Z,16.8
2018-02-13T02:19:35.500Z,16.79
2018-02-13T02:20:35.519Z,16.8
2018-02-13T02:21:35.504Z,16.78
2018-02-13T02:22:35.511Z,16.78
2018-02-13T02:23:35.560Z,16.79
2018-02-13T02:24:35.570Z,16.79
2018-02-13T02:25:35.538Z,16.79
2018-02-13T02:26:35.489Z,16.78
2018-02-13T02:27:35.516Z,16.79
2018-02-13T02:28:35.505Z,16.81
2018-02-13T02:29:35.510Z,16.78
2018-02-13T02:30:35.522Z,16.75
2018-02-13T02:31:35.504Z,16.78
2018-02-13T02:32:35.485Z,16.76
2018-02-13T02:33:35.533Z,16.77
2018-02-13T02:34:35.519Z,16.75
2018-02-13T02:35:35.531Z,16.76
2018-02-13T02:36:35.500Z,16.77
2018-02-13T02:37:35.514Z,16.77
2018-02-13T02:38:35.555Z,16.77
2018-02-13T02:39:35.479Z,16.74
2018-02-13T02:40:35.533Z,16.74
2018-02-13T02:41:35.476Z,16.74
2018-02-13T02:42:35.499Z,16.75
2018-02-13T02:43:35.512Z,16.75
2018-02-13T02:44:35.502Z,16.73
2018-02-13T02:45:35.524Z,16.73
2018-02-13T02:46:35.522Z,16.73
2018-02-13T02:47:35.521Z,16.73
2018-02-13T02:48:35.495Z,16.72
2018-02-13T02:49:35.507Z,16.72
2018-02-13T02:50:35.510Z,16.69
2018-02-13T02:51:35.726Z,16.7
2018-02-13T02:52:35.815Z,16.67
2018-02-13T02:53:35.716Z,16.7
2018-02-13T02:54:35.733Z,16.7
2018-02-13T02:55:35.723Z,16.69
2018-02-13T02:56:35.703Z,16.69
2018-02-13T02:57:35.723Z,16.66
2018-02-13T02:58:35.708Z,16.69
2018-02-13T02:59:35.707Z,16.66
2018-02-13T03:00:35.746Z,16.66
2018-02-13T03:01:35.714Z,16.69
2018-02-13T03:02:35.717Z,16.65
2018-02-13T03:03:35.694Z,16.66
2018-02-13T03:04:35.700Z,16.65
2018-02-13T03:05:35.693Z,16.67
2018-02-13T03:06:35.706Z,16.65
2018-02-13T03:07:35.705Z,16.62
2018-02-13T03:13:22.339Z,16.62
2018-02-13T03:14:21.905Z,16.62
2018-02-13T03:15:21.898Z,16.6
2018-02-13T03:16:21.900Z,16.63
2018-02-13T03:18:22.448Z,16.63
2018-02-13T03:19:21.909Z,16.62
2018-02-13T03:20:21.922Z,16.6
2018-02-13T03:21:21.905Z,16.62
2018-02-13T03:22:21.962Z,16.61
2018-02-13T03:23:21.920Z,16.6
2018-02-13T03:24:21.901Z,16.61
2018-02-13T03:25:21.941Z,16.61
2018-02-13T03:26:21.914Z,16.6
2018-02-13T03:27:21.949Z,16.56
2018-02-13T03:28:21.890Z,16.57
2018-02-13T03:29:21.922Z,16.58
2018-02-13T03:30:21.952Z,16.57
2018-02-13T03:31:21.954Z,16.58
2018-02-13T03:32:21.939Z,16.57
2018-02-13T03:33:21.901Z,16.58
2018-02-13T03:34:21.970Z,16.56
2018-02-13T03:35:21.950Z,16.56
2018-02-13T03:36:21.901Z,16.55
2018-02-13T03:37:21.930Z,16.57
2018-02-13T03:38:21.961Z,16.56
2018-02-13T03:39:21.938Z,16.57
2018-02-13T03:40:21.920Z,16.54
2018-02-13T03:41:21.882Z,16.54
2018-02-13T03:42:21.907Z,16.55
2018-02-13T03:43:21.949Z,16.55
2018-02-13T03:44:21.890Z,16.54
2018-02-13T03:45:21.897Z,16.52
2018-02-13T03:46:21.918Z,16.52
2018-02-13T03:47:21.883Z,16.57
2018-02-13T03:48:21.899Z,16.56
2018-02-13T03:49:21.904Z,16.54
2018-02-13T03:50:21.881Z,16.52
2018-02-13T03:51:21.909Z,16.52
2018-02-13T03:52:21.900Z,16.51
2018-02-13T03:53:21.898Z,16.52
2018-02-13T03:54:21.902Z,16.49
2018-02-13T03:55:21.885Z,16.5
2018-02-13T03:56:21.865Z,16.51
2018-02-13T03:57:21.897Z,16.5
2018-02-13T03:58:21.870Z,16.5
2018-02-13T03:59:21.890Z,16.5
2018-02-13T04:00:21.920Z,16.47
2018-02-13T04:01:21.902Z,16.47
2018-02-13T04:02:21.891Z,16.51
2018-02-13T04:03:21.893Z,16.48
2018-02-13T04:04:21.931Z,16.48
2018-02-13T04:05:21.868Z,16.47
2018-02-13T04:06:21.884Z,16.48
2018-02-13T04:07:21.872Z,16.46
2018-02-13T04:08:21.888Z,16.45
2018-02-13T04:09:21.932Z,16.47
2018-02-13T04:10:21.915Z,16.46
2018-02-13T04:11:21.863Z,16.47
2018-02-13T04:12:21.880Z,16.47
2018-02-13T04:13:21.898Z,16.46
2018-02-13T04:14:21.889Z,16.47
2018-02-13T04:15:21.892Z,16.44
2018-02-13T04:16:21.906Z,16.43
2018-02-13T04:17:21.885Z,16.43
2018-02-13T04:18:21.898Z,16.42
2018-02-13T04:19:21.940Z,16.43
2018-02-13T04:20:21.880Z,16.42
2018-02-13T04:21:21.867Z,16.43
2018-02-13T04:22:21.865Z,16.43
2018-02-13T04:23:21.892Z,16.42
2018-02-13T04:24:21.878Z,16.44
2018-02-13T04:25:21.881Z,16.42
2018-02-13T04:26:21.881Z,16.41
2018-02-13T04:27:21.867Z,16.4
2018-02-13T04:28:21.863Z,16.42
2018-02-13T04:29:21.961Z,16.39
2018-02-13T04:30:21.870Z,16.4
2018-02-13T04:31:21.883Z,16.39
2018-02-13T04:32:21.888Z,16.4
2018-02-13T04:33:21.858Z,16.39
2018-02-13T04:34:21.870Z,16.37
2018-02-13T04:35:21.887Z,16.37
2018-02-13T04:36:21.906Z,16.39
2018-02-13T04:37:21.877Z,16.37
2018-02-13T04:38:21.873Z,16.37
2018-02-13T04:39:21.913Z,16.37
2018-02-13T04:40:21.860Z,16.37
2018-02-13T04:41:21.925Z,16.36
2018-02-13T04:42:21.883Z,16.36
2018-02-13T04:43:21.877Z,16.36
2018-02-13T04:44:21.857Z,16.37
2018-02-13T04:45:21.871Z,16.37
2018-02-13T04:46:21.885Z,16.35
2018-02-13T04:47:21.884Z,16.35
2018-02-13T04:48:21.868Z,16.36
2018-02-13T04:49:21.847Z,16.36
2018-02-13T04:50:21.864Z,16.36
2018-02-13T04:51:21.876Z,16.36
2018-02-13T04:52:21.853Z,16.36
2018-02-13T04:53:21.894Z,16.39
2018-02-13T04:54:21.966Z,16.39
2018-02-13T04:55:21.964Z,16.39
2018-02-13T04:56:21.871Z,16.37
2018-02-13T04:57:21.858Z,16.35
2018-02-13T04:58:21.861Z,16.36
2018-02-13T04:59:21.878Z,16.37
2018-02-13T05:00:21.847Z,16.36
2018-02-13T05:01:21.905Z,16.37
2018-02-13T05:02:21.884Z,16.39
2018-02-13T05:03:21.884Z,16.41
2018-02-13T05:04:21.869Z,16.41
2018-02-13T05:05:21.894Z,16.41
2018-02-13T05:06:21.871Z,16.41
2018-02-13T05:07:21.848Z,16.43
2018-02-13T05:08:21.882Z,16.43
2018-02-13T05:09:21.850Z,16.44
2018-02-13T05:10:21.882Z,16.43
2018-02-13T05:11:21.878Z,16.45
2018-02-13T05:12:21.877Z,16.43
2018-02-13T05:13:21.908Z,16.45
2018-02-13T05:14:21.843Z,16.47
2018-02-13T05:15:21.905Z,16.47
2018-02-13T05:16:21.914Z,16.47
2018-02-13T05:17:21.876Z,16.48
2018-02-13T05:18:21.852Z,16.51
2018-02-13T05:19:21.911Z,16.51
2018-02-13T05:20:21.863Z,16.52
2018-02-13T05:21:21.861Z,16.52
2018-02-13T05:22:21.843Z,16.54
2018-02-13T05:23:21.854Z,16.55
2018-02-13T05:24:21.889Z,16.57
2018-02-13T05:25:21.847Z,16.57
2018-02-13T05:26:21.875Z,16.57
2018-02-13T05:28:22.491Z,16.6
2018-02-13T05:29:21.904Z,16.6
2018-02-13T05:30:21.934Z,16.6
2018-02-13T05:31:21.911Z,16.6
2018-02-13T05:32:21.928Z,16.62
2018-02-13T05:33:21.900Z,16.62
2018-02-13T05:34:21.964Z,16.62
2018-02-13T05:35:21.887Z,16.62
2018-02-13T05:36:21.907Z,16.63
2018-02-13T05:37:21.914Z,16.64
2018-02-13T05:38:21.878Z,16.65
2018-02-13T05:39:21.899Z,16.64
2018-02-13T05:40:21.887Z,16.67
2018-02-13T05:41:21.886Z,16.66
2018-02-13T05:42:21.903Z,16.69
2018-02-13T05:43:21.907Z,16.69
2018-02-13T05:44:21.886Z,16.69
2018-02-13T05:45:21.885Z,16.72
2018-02-13T05:46:21.896Z,16.71
2018-02-13T05:47:21.953Z,16.7
2018-02-13T05:48:21.916Z,16.74
2018-02-13T05:49:21.894Z,16.77
2018-02-13T05:50:21.898Z,16.77
2018-02-13T05:51:21.884Z,16.77
2018-02-13T05:52:21.899Z,16.78
2018-02-13T05:53:21.918Z,16.82
2018-02-13T05:54:21.880Z,16.82
2018-02-13T05:55:21.871Z,16.82
2018-02-13T05:56:21.887Z,16.87
2018-02-13T05:57:21.892Z,16.86
2018-02-13T05:58:28.042Z,16.88
2018-02-13T05:59:21.847Z,16.89
2018-02-13T06:00:21.899Z,16.92
2018-02-13T06:01:21.841Z,16.91
2018-02-13T06:02:21.854Z,16.94
2018-02-13T06:03:21.861Z,16.96
2018-02-13T06:04:22.186Z,16.99
2018-02-13T06:05:21.870Z,17
2018-02-13T06:06:21.859Z,17
2018-02-13T06:07:21.878Z,17.03
2018-02-13T06:08:21.853Z,17.03
2018-02-13T06:09:21.905Z,17.04
2018-02-13T06:10:21.856Z,17.08
2018-02-13T06:11:21.873Z,17.07
2018-02-13T06:12:21.867Z,17.1
2018-02-13T06:13:21.854Z,17.11
2018-02-13T06:14:21.851Z,17.11
2018-02-13T06:15:21.864Z,17.14
2018-02-13T06:16:21.885Z,17.16
2018-02-13T06:17:21.846Z,17.16
2018-02-13T06:18:21.829Z,17.18
2018-02-13T06:19:21.875Z,17.18
2018-02-13T06:20:21.852Z,17.19
2018-02-13T06:21:21.832Z,17.19
2018-02-13T06:22:21.903Z,17.19
2018-02-13T06:23:21.855Z,17.21
2018-02-13T06:24:21.908Z,17.22
2018-02-13T06:25:21.839Z,17.24
2018-02-13T06:26:21.847Z,17.23
2018-02-13T06:27:21.836Z,17.28
2018-02-13T06:28:21.835Z,17.26
2018-02-13T06:29:21.864Z,17.28
2018-02-13T06:30:21.856Z,17.29
2018-02-13T06:31:21.842Z,17.3
2018-02-13T06:32:21.859Z,17.31
2018-02-13T06:33:21.840Z,17.32
2018-02-13T06:34:21.905Z,17.36
2018-02-13T06:35:21.837Z,17.35
2018-02-13T06:36:21.912Z,17.34
2018-02-13T06:37:21.852Z,17.35
2018-02-13T06:38:21.845Z,17.39
2018-02-13T06:39:21.869Z,17.37
2018-02-13T06:40:21.844Z,17.39
2018-02-13T06:41:21.878Z,17.39
2018-02-13T06:42:21.856Z,17.4
2018-02-13T06:43:21.873Z,17.41
2018-02-13T06:44:21.900Z,17.44
2018-02-13T06:45:21.883Z,17.45
2018-02-13T06:46:21.903Z,17.43
2018-02-13T06:47:21.913Z,17.45
2018-02-13T06:48:21.843Z,17.48
2018-02-13T06:49:21.843Z,17.47
2018-02-13T06:50:21.866Z,17.48
2018-02-13T06:51:21.880Z,17.5
2018-02-13T06:52:21.850Z,17.49
2018-02-13T06:53:21.835Z,17.5
2018-02-13T06:54:21.828Z,17.5
2018-02-13T06:55:21.947Z,17.53
2018-02-13T06:56:22.491Z,17.53
2018-02-13T06:57:21.831Z,17.54
2018-02-13T06:58:21.839Z,17.54
2018-02-13T06:59:21.846Z,17.54
2018-02-13T07:00:21.828Z,17.55
2018-02-13T07:01:21.868Z,17.59
2018-02-13T07:02:21.890Z,17.58
2018-02-13T07:03:21.876Z,17.59
2018-02-13T07:04:21.815Z,17.61
2018-02-13T07:05:21.851Z,17.61
2018-02-13T07:06:21.864Z,17.62
2018-02-13T07:07:21.837Z,17.61
2018-02-13T07:08:21.920Z,17.63
2018-02-13T07:09:21.844Z,17.67
2018-02-13T07:10:21.827Z,17.68
2018-02-13T07:11:21.983Z,17.67
2018-02-13T07:12:21.841Z,17.67
2018-02-13T07:13:21.839Z,17.68
2018-02-13T07:14:21.825Z,17.68
2018-02-13T07:15:21.838Z,17.69
2018-02-13T07:16:21.865Z,17.69
2018-02-13T07:17:21.838Z,17.68
2018-02-13T07:18:21.826Z,17.7
2018-02-13T07:19:21.875Z,17.7
2018-02-13T07:20:21.835Z,17.73
2018-02-13T07:21:21.869Z,17.73
2018-02-13T07:22:21.890Z,17.74
2018-02-13T07:23:21.823Z,17.76
2018-02-13T07:24:21.848Z,17.78
2018-02-13T07:25:21.851Z,17.78
2018-02-13T07:26:21.860Z,17.8
2018-02-13T07:27:21.879Z,17.79
2018-02-13T07:28:21.835Z,17.81
2018-02-13T07:29:21.833Z,17.8
2018-02-13T07:30:21.814Z,17.83
2018-02-13T07:31:21.913Z,17.85
2018-02-13T07:32:21.834Z,17.83
2018-02-13T07:33:21.836Z,17.85
2018-02-13T07:34:21.826Z,17.85
2018-02-13T07:35:21.819Z,17.83
2018-02-13T07:36:21.864Z,17.85
2018-02-13T07:37:21.816Z,17.84
2018-02-13T07:38:21.838Z,17.83
2018-02-13T07:39:21.825Z,17.85
2018-02-13T07:40:21.881Z,17.85
2018-02-13T07:41:21.850Z,17.85
2018-02-13T07:42:21.856Z,17.88
2018-02-13T07:43:21.877Z,17.88
2018-02-13T07:44:21.839Z,17.89
2018-02-13T07:45:21.812Z,17.88
2018-02-13T07:46:21.932Z,17.89
2018-02-13T07:47:21.825Z,17.88
2018-02-13T07:48:21.836Z,17.88
2018-02-13T07:49:21.829Z,17.88
2018-02-13T07:50:21.813Z,17.91
2018-02-13T07:51:21.844Z,17.91
2018-02-13T07:52:21.835Z,17.9
2018-02-13T07:53:21.834Z,17.9
2018-02-13T07:54:21.826Z,17.9
2018-02-13T07:55:21.808Z,17.91
2018-02-13T07:56:21.852Z,17.9
2018-02-13T07:57:21.841Z,17.93
2018-02-13T07:58:21.848Z,17.92
2018-02-13T07:59:21.860Z,17.92
2018-02-13T08:00:21.853Z,17.91
2018-02-13T08:01:21.874Z,17.93
2018-02-13T08:02:21.904Z,17.93
2018-02-13T08:03:21.849Z,17.93
2018-02-13T08:04:21.828Z,17.95
2018-02-13T08:05:21.797Z,17.95
2018-02-13T08:06:21.834Z,17.96
2018-02-13T08:07:21.868Z,17.95
2018-02-13T08:08:21.840Z,17.95
2018-02-13T08:09:21.868Z,17.97
2018-02-13T08:10:21.847Z,17.99
2018-02-13T08:11:21.843Z,17.99
2018-02-13T08:12:21.853Z,17.98
2018-02-13T08:13:22.112Z,17.98
2018-02-13T08:14:21.842Z,17.99
2018-02-13T08:15:21.910Z,18
2018-02-13T08:16:21.851Z,18.02
2018-02-13T08:17:21.896Z,18.03
2018-02-13T08:18:21.973Z,18.03
2018-02-13T08:19:21.822Z,18.04
2018-02-13T08:20:21.825Z,18.03
2018-02-13T08:21:21.842Z,18.04
2018-02-13T08:22:21.842Z,18.04
2018-02-13T08:23:21.873Z,18.04
2018-02-13T08:24:21.861Z,18.07
2018-02-13T08:25:21.859Z,18.06
2018-02-13T08:26:21.825Z,18.06
2018-02-13T08:27:21.844Z,18.04
2018-02-13T08:28:21.854Z,18.07
2018-02-13T08:29:21.856Z,18.07
2018-02-13T08:30:21.829Z,18.09
2018-02-13T08:31:21.843Z,18.09
2018-02-13T08:32:21.828Z,18.1
2018-02-13T08:33:21.847Z,18.1
2018-02-13T08:34:22.104Z,18.11
2018-02-13T08:35:21.816Z,18.11
2018-02-13T08:36:21.838Z,18.12
2018-02-13T08:37:21.859Z,18.14
2018-02-13T08:38:21.809Z,18.13
2018-02-13T08:39:21.861Z,18.13
2018-02-13T08:40:21.822Z,18.14
2018-02-13T08:41:21.822Z,18.14
2018-02-13T08:42:21.800Z,18.17
2018-02-13T08:43:21.811Z,18.14
2018-02-13T08:44:21.837Z,18.17
2018-02-13T08:45:21.865Z,18.17
2018-02-13T08:46:21.826Z,18.17
2018-02-13T08:47:21.808Z,18.17
2018-02-13T08:48:21.850Z,18.19
2018-02-13T08:49:21.854Z,18.2
2018-02-13T08:50:21.820Z,18.22
2018-02-13T08:51:21.838Z,18.21
2018-02-13T08:52:21.805Z,18.22
2018-02-13T08:53:21.818Z,18.2
2018-02-13T08:54:21.859Z,18.23
2018-02-13T08:55:21.808Z,18.22
2018-02-13T08:56:21.909Z,18.22
2018-02-13T08:57:21.804Z,18.22
2018-02-13T08:58:21.830Z,18.23
2018-02-13T08:59:21.863Z,18.24
2018-02-13T09:00:21.834Z,18.25
2018-02-13T09:01:21.834Z,18.24
2018-02-13T09:02:21.859Z,18.25
2018-02-13T09:03:21.897Z,18.23
2018-02-13T09:04:21.825Z,18.25
2018-02-13T09:05:21.800Z,18.27
2018-02-13T09:06:21.827Z,18.25
2018-02-13T09:07:21.811Z,18.26
2018-02-13T09:08:21.832Z,18.25
2018-02-13T09:09:21.905Z,18.27
2018-02-13T09:10:21.798Z,18.26
2018-02-13T09:11:21.788Z,18.24
2018-02-13T09:12:21.803Z,18.26
2018-02-13T09:13:21.797Z,18.26
2018-02-13T09:14:21.869Z,18.26
2018-02-13T09:15:21.813Z,18.26
2018-02-13T09:16:21.842Z,18.28
2018-02-13T09:17:21.828Z,18.26
2018-02-13T09:18:21.830Z,18.26
2018-02-13T09:19:21.909Z,18.28
2018-02-13T09:20:22.108Z,18.26
2018-02-13T09:21:21.868Z,18.28
2018-02-13T09:22:21.828Z,18.27
2018-02-13T09:23:21.816Z,18.34
2018-02-13T09:24:21.854Z,18.33
2018-02-13T09:25:21.875Z,18.33
2018-02-13T09:26:21.815Z,18.34
2018-02-13T09:27:21.807Z,18.34
2018-02-13T09:28:21.807Z,18.34
2018-02-13T09:29:21.908Z,18.37
2018-02-13T09:30:21.828Z,18.4
2018-02-13T09:31:21.803Z,18.39
2018-02-13T09:32:21.850Z,18.42
2018-02-13T09:33:21.811Z,18.47
2018-02-13T09:34:21.823Z,18.47
2018-02-13T09:35:21.828Z,18.49
2018-02-13T09:36:21.832Z,18.49
2018-02-13T09:37:21.838Z,18.49
2018-02-13T09:38:21.808Z,18.47
2018-02-13T09:39:21.836Z,18.47
2018-02-13T09:40:21.849Z,18.5
2018-02-13T09:41:21.837Z,18.49
2018-02-13T09:42:21.806Z,18.48
2018-02-13T09:43:21.829Z,18.49
2018-02-13T09:44:21.871Z,18.51
2018-02-13T09:45:21.831Z,18.5
2018-02-13T09:46:21.801Z,18.48
2018-02-13T09:47:21.835Z,18.49
2018-02-13T09:48:21.826Z,18.49
2018-02-13T09:49:21.799Z,18.47
2018-02-13T09:50:21.835Z,18.46
2018-02-13T09:51:21.837Z,18.44
2018-02-13T09:52:21.831Z,18.44
2018-02-13T09:53:21.849Z,18.46
2018-02-13T09:54:21.880Z,18.47
2018-02-13T09:55:21.896Z,18.43
2018-02-13T09:56:22.194Z,18.46
2018-02-13T09:57:21.822Z,18.44
2018-02-13T09:58:21.844Z,18.43
2018-02-13T09:59:21.851Z,18.44
2018-02-13T10:00:21.822Z,18.44
2018-02-13T10:01:21.832Z,18.44
2018-02-13T10:02:21.908Z,18.42
2018-02-13T10:03:21.824Z,18.43
2018-02-13T10:04:21.833Z,18.43
2018-02-13T10:05:21.866Z,18.41
2018-02-13T10:06:21.824Z,18.46
2018-02-13T10:07:21.890Z,18.44
2018-02-13T10:08:21.871Z,18.41
2018-02-13T10:09:21.865Z,18.43
2018-02-13T10:10:21.847Z,18.41
2018-02-13T10:11:21.873Z,18.39
2018-02-13T10:12:21.874Z,18.4
2018-02-13T10:13:21.883Z,18.38
2018-02-13T10:14:21.853Z,18.37
2018-02-13T10:15:21.842Z,18.37
2018-02-13T10:16:22.168Z,18.37
2018-02-13T10:17:21.818Z,18.36
2018-02-13T10:18:21.878Z,18.34
2018-02-13T10:19:21.799Z,18.33
2018-02-13T10:20:21.790Z,18.33
2018-02-13T10:21:21.836Z,18.3
2018-02-13T10:22:21.868Z,18.32
2018-02-13T10:23:21.862Z,18.28
2018-02-13T10:24:21.884Z,18.28
2018-02-13T10:25:21.896Z,18.26
2018-02-13T10:26:21.920Z,18.26
2018-02-13T10:27:21.851Z,18.23
2018-02-13T10:28:21.860Z,18.25
2018-02-13T10:29:21.868Z,18.25
2018-02-13T10:30:21.885Z,18.24
2018-02-13T10:31:21.964Z,18.21
2018-02-13T10:32:21.858Z,18.21
2018-02-13T10:33:21.846Z,18.22
2018-02-13T10:34:21.785Z,18.19
2018-02-13T10:35:21.924Z,18.17
2018-02-13T10:36:21.825Z,18.17
2018-02-13T10:37:21.851Z,18.14
2018-02-13T10:38:21.913Z,18.12
2018-02-13T10:39:21.812Z,18.1
2018-02-13T10:40:21.820Z,18.09
2018-02-13T10:41:21.826Z,18.04
2018-02-13T10:42:21.895Z,18.04
2018-02-13T10:43:21.793Z,18.02
2018-02-13T10:44:21.820Z,18.02
2018-02-13T10:45:21.905Z,17.99
2018-02-13T10:46:21.984Z,17.97
2018-02-13T10:47:21.808Z,17.95
2018-02-13T10:48:21.820Z,17.97
2018-02-13T10:49:21.834Z,17.96
2018-02-13T10:50:21.831Z,17.99
2018-02-13T10:51:21.808Z,17.97
2018-02-13T10:52:21.986Z,17.98
2018-02-13T10:53:21.905Z,17.98
2018-02-13T10:54:27.947Z,17.96
2018-02-13T10:55:21.791Z,17.97
2018-02-13T10:56:21.789Z,17.99
2018-02-13T10:57:21.869Z,17.98
2018-02-13T10:58:21.791Z,17.98
2018-02-13T10:59:21.786Z,17.99
2018-02-13T11:00:21.790Z,17.97
2018-02-13T11:01:21.918Z,17.96
2018-02-13T11:02:21.924Z,17.96
2018-02-13T11:03:21.820Z,17.99
2018-02-13T11:04:21.856Z,17.98
2018-02-13T11:05:21.769Z,17.95
2018-02-13T11:06:21.855Z,17.97
2018-02-13T11:07:21.771Z,17.95
2018-02-13T11:08:21.783Z,17.96
2018-02-13T11:09:21.792Z,17.95
2018-02-13T11:10:21.886Z,17.93
2018-02-13T11:11:21.832Z,17.95
2018-02-13T11:12:21.805Z,17.93
2018-02-13T11:13:21.930Z,17.94
2018-02-13T11:14:21.781Z,17.92
2018-02-13T11:15:21.868Z,17.92
2018-02-13T11:16:21.805Z,17.93
2018-02-13T11:17:21.801Z,17.97
2018-02-13T11:18:21.839Z,17.96
2018-02-13T11:19:21.795Z,17.93
2018-02-13T11:20:21.810Z,17.94
2018-02-13T11:21:21.834Z,17.92
2018-02-13T11:22:21.778Z,17.92
2018-02-13T11:23:21.767Z,17.95
2018-02-13T11:24:21.777Z,17.95
2018-02-13T11:25:21.804Z,17.97
2018-02-13T11:26:21.888Z,17.98
2018-02-13T11:27:21.783Z,18.02
2018-02-13T11:28:21.829Z,18.03
2018-02-13T11:29:21.766Z,18.06
2018-02-13T11:30:21.805Z,18.04
2018-02-13T11:31:21.837Z,18.04
2018-02-13T11:32:21.794Z,18.1
2018-02-13T11:33:21.774Z,18.09
2018-02-13T11:34:21.803Z,18.13
2018-02-13T11:35:21.800Z,18.13
2018-02-13T11:36:21.763Z,18.13
2018-02-13T11:37:21.853Z,18.17
2018-02-13T11:38:21.774Z,18.19
2018-02-13T11:39:21.804Z,18.19
2018-02-13T11:40:21.782Z,18.23
2018-02-13T11:41:21.789Z,18.22
2018-02-13T11:42:21.782Z,18.21
2018-02-13T11:43:21.883Z,18.24
2018-02-13T11:44:21.778Z,18.28
2018-02-13T11:45:21.801Z,18.28
2018-02-13T11:46:21.789Z,18.27
2018-02-13T11:47:21.776Z,18.28
2018-02-13T11:48:21.768Z,18.28
2018-02-13T11:49:21.764Z,18.29
2018-02-13T11:50:21.785Z,18.3
2018-02-13T11:51:21.767Z,18.33
2018-02-13T11:52:21.829Z,18.35
2018-02-13T11:53:21.824Z,18.35
2018-02-13T11:54:21.811Z,18.34
2018-02-13T11:55:25.185Z,18.35
2018-02-13T11:56:21.785Z,18.35
2018-02-13T11:57:21.821Z,18.37
2018-02-13T11:58:21.812Z,18.38
2018-02-13T11:59:21.810Z,18.38
2018-02-13T12:00:24.914Z,18.38
2018-02-13T12:01:21.801Z,18.38
2018-02-13T12:02:22.777Z,18.41
2018-02-13T12:03:21.773Z,18.39
2018-02-13T12:04:21.976Z,18.4
2018-02-13T12:05:21.780Z,18.4
2018-02-13T12:06:21.804Z,18.39
2018-02-13T12:07:21.792Z,18.39
2018-02-13T12:08:21.811Z,18.37
2018-02-13T12:09:21.935Z,18.34
2018-02-13T12:10:21.901Z,18.35
2018-02-13T12:11:22.820Z,18.34
2018-02-13T12:12:22.737Z,18.33
2018-02-13T12:13:21.877Z,18.34
2018-02-13T12:14:22.757Z,18.37
2018-02-13T12:15:22.781Z,18.39
2018-02-13T12:16:22.756Z,18.41
2018-02-13T12:17:22.756Z,18.42
2018-02-13T12:18:21.804Z,18.43
2018-02-13T12:19:22.435Z,18.48
2018-02-13T12:20:22.781Z,18.52
2018-02-13T12:21:22.819Z,18.53
2018-02-13T12:22:22.747Z,18.52
2018-02-13T12:23:22.773Z,18.54
2018-02-13T12:24:23.212Z,18.54
2018-02-13T12:25:22.746Z,18.61
2018-02-13T12:26:22.761Z,18.62
2018-02-13T12:27:22.938Z,18.61
2018-02-13T12:28:21.897Z,18.61
2018-02-13T12:29:21.987Z,18.55
2018-02-13T12:30:22.750Z,18.46
2018-02-13T12:31:22.850Z,18.3
2018-02-13T12:32:22.743Z,18.11
2018-02-13T12:33:24.943Z,17.99
2018-02-13T12:34:22.025Z,17.9
2018-02-13T12:35:22.770Z,17.77
2018-02-13T12:36:22.774Z,17.69
2018-02-13T12:37:22.784Z,17.63
2018-02-13T12:38:22.764Z,17.72
2018-02-13T12:39:22.785Z,17.76
2018-02-13T12:40:22.564Z,17.81
2018-02-13T12:41:22.767Z,17.82
2018-02-13T12:42:22.740Z,17.85
2018-02-13T12:43:21.870Z,17.89
2018-02-13T12:44:22.744Z,17.92
2018-02-13T12:45:22.646Z,17.94
2018-02-13T12:46:22.749Z,17.98
2018-02-13T12:47:22.753Z,18
2018-02-13T12:48:22.773Z,18.04
2018-02-13T12:49:22.765Z,18.04
2018-02-13T12:50:22.835Z,18.05
2018-02-13T12:51:22.755Z,18.07
2018-02-13T12:52:22.756Z,18.1
2018-02-13T12:53:22.757Z,18.08
2018-02-13T12:54:22.956Z,18.12
2018-02-13T12:55:22.698Z,18.12
2018-02-13T12:56:22.776Z,18.17
2018-02-13T12:57:22.829Z,18.14
2018-02-13T12:58:21.837Z,18.17
2018-02-13T12:59:22.768Z,18.19
2018-02-13T13:00:22.016Z,18.2
2018-02-13T13:01:22.759Z,18.2
2018-02-13T13:02:22.759Z,18.21
2018-02-13T13:03:22.759Z,18.22
2018-02-13T13:04:22.744Z,18.22
2018-02-13T13:05:22.187Z,18.24
2018-02-13T13:06:22.811Z,18.28
2018-02-13T13:07:21.771Z,18.28